Aurora, CO (80016)

3:53 AM MDT on August 29, 2014 (GMT -0600)
Greenfield | Change Station
CLOSE
Current Station
Personal Weather Station
Location: Centennial, CO
Elevation: 5810 ft
Nearby Weather Stations

Elev 5810 ft 39.60 °N, 104.75 °W | Updated 6 seconds ago

Clear
Clear
50.9 °F
Feels Like 50.9 °F
N
1.6
Wind Variable Wind from ENE
Gusts 2.0 mph

Today
High -- | Low -- °F
--% Chance of Precip.
Yesterday
High -- | Low -- °F
Precip. -- in
6:24 AM 7:34 PM
Waxing Crescent, 13% visible
Pressure 29.99 in
Visibility 10.0 miles
Clouds Clear
Dew Point 44 °F
Humidity 78%
Rainfall 0.00 in
Snow Depth Not available.
UV 0 out of 12
Pollen 8.30 out of 12
Air Quality Not available.
Flu Activity Not available.
METAR KAPA 290853Z 24008KT 10SM CLR 13/07 A3012 RMK AO2 SLP156 T01330067 56009

More Conditions Fewer Conditions

Pressure 29.99 in
Visibility 10.0 miles
Clouds Clear
Dew Point 44 °F
Humidity 78%
Rainfall 0.00 in
Snow Depth Not available.
UV 0 out of 12
Pollen 8.30 out of 12
Air Quality Not available.
Flu Activity Not available.
METAR KAPA 290853Z 24008KT 10SM CLR 13/07 A3012 RMK AO2 SLP156 T01330067 56009

More Conditions Fewer Conditions

10-Day Weather Forecast

Almanac

Astronomy

Aug. 29, 2014 Rise Set
Actual Time 6:24 AM MDT 7:34 PM MDT
Civil Twilight 5:56 AM MDT 8:02 PM MDT
Nautical Twilight 5:23 AM MDT 8:35 PM MDT
Astronomical Twilight 4:48 AM MDT 9:09 PM MDT
Moon 10:15 AM MDT 9:34 PM MDT
Length of Visible Light 14h 05m
Length of Day
13h 10m
Tomorrow will be 2m 28s shorter.
Waxing Crescent, 13% of the Moon is Illuminated
Today
Waxing Crescent
Sep 2
First Quarter
Sep 8
Full
Sep 15
Last Quarter
Sep 24
New

Today's Extremes

State Highs State Lows

Community

WunderPhotos

Upload Photos

1,748,207 photos uploaded!

Nearby

Air Quality

  Air Quality AQ Index Pollutant
Yesterday Good
OZONE
Yesterday Good
PM10
Friday Moderate
OZONE
Friday Good
PM2.5

Snow Depth

Station Depth Elevation
Echo Lake 0 in 10600 ft
Niwot 0 in 9910 ft
University Camp 1 in 10300 ft
Jackwhacker Gulch 0 in 10960 ft
Berthoud Summit 1 in 11300 ft

Earthquake Activity

City Distance Mag. Time & Date
No recent earthquake activity has been reported nearby.
Minimum magnitude displayed is 2.5.

Coastal Water Temperatures

Place Temperature
No Stations Reporting

Nearby Weather Stations